createdAt,value
2018-06-01T23:06:12.226Z,24.00
2018-06-01T23:06:33.752Z,24.05
2018-06-01T23:06:55.267Z,24.07
2018-06-01T23:07:16.792Z,24.09
2018-06-01T23:07:38.321Z,24.10
2018-06-01T23:07:59.826Z,24.13
2018-06-01T23:08:21.376Z,24.15
2018-06-01T23:08:44.790Z,24.16
2018-06-01T23:09:06.306Z,24.16
2018-06-01T23:09:27.820Z,24.16
2018-06-01T23:09:49.355Z,24.17
2018-06-01T23:10:10.874Z,24.18
2018-06-01T23:10:32.402Z,24.18
2018-06-01T23:10:53.913Z,24.19
2018-06-01T23:11:15.422Z,24.20
2018-06-01T23:11:36.948Z,24.19
2018-06-01T23:11:58.479Z,24.20
2018-06-01T23:12:20.008Z,24.21
2018-06-01T23:12:41.709Z,24.21
2018-06-01T23:13:03.246Z,24.21
2018-06-01T23:13:24.767Z,24.21
2018-06-01T23:13:46.270Z,24.21
2018-06-01T23:14:07.817Z,24.22
2018-06-01T23:14:29.335Z,24.23
2018-06-01T23:14:50.891Z,24.22
2018-06-01T23:15:12.395Z,24.22
2018-06-01T23:15:33.925Z,24.22
2018-06-01T23:15:55.451Z,24.23
2018-06-01T23:16:16.974Z,24.23
2018-06-01T23:16:38.486Z,24.22
2018-06-01T23:17:00.029Z,24.23
2018-06-01T23:17:21.553Z,24.23
2018-06-01T23:17:43.075Z,24.24
2018-06-01T23:18:04.588Z,24.23
2018-06-01T23:18:26.102Z,24.23
2018-06-01T23:18:47.633Z,24.23
2018-06-01T23:19:09.143Z,24.24
2018-06-01T23:19:30.651Z,24.24
2018-06-01T23:19:53.190Z,24.25
2018-06-01T23:20:14.713Z,24.24
2018-06-01T23:20:36.224Z,24.25
2018-06-01T23:20:57.738Z,24.25
2018-06-01T23:21:19.263Z,24.24
2018-06-01T23:21:40.771Z,24.25
2018-06-01T23:22:02.292Z,24.25
2018-06-01T23:22:23.799Z,24.24
2018-06-01T23:22:45.327Z,24.25
2018-06-01T23:23:07.412Z,24.25
2018-06-01T23:23:28.929Z,24.25
2018-06-01T23:23:50.439Z,24.26
2018-06-01T23:24:11.969Z,24.26
2018-06-01T23:24:33.483Z,24.25
2018-06-01T23:24:55.022Z,24.26
2018-06-01T23:25:16.540Z,24.26
2018-06-01T23:25:38.047Z,24.26
2018-06-01T23:25:59.564Z,24.25
2018-06-01T23:26:21.089Z,24.26
2018-06-01T23:26:42.626Z,24.26
2018-06-01T23:27:04.153Z,24.26
2018-06-01T23:27:25.680Z,24.26
2018-06-01T23:27:47.194Z,24.26
2018-06-01T23:28:08.715Z,24.27
2018-06-01T23:28:30.233Z,24.27
2018-06-01T23:28:51.748Z,24.26
2018-06-01T23:29:13.268Z,24.27
2018-06-01T23:29:34.804Z,24.28
2018-06-01T23:29:56.339Z,24.28
2018-06-01T23:30:17.858Z,24.28
2018-06-01T23:30:39.372Z,24.28
2018-06-01T23:31:00.892Z,24.28
2018-06-01T23:31:22.418Z,24.32
2018-06-01T23:31:43.941Z,24.30
2018-06-01T23:32:05.459Z,24.31
2018-06-01T23:32:26.969Z,24.31
2018-06-01T23:32:48.513Z,24.31
2018-06-01T23:33:10.033Z,24.31
2018-06-01T23:33:31.567Z,24.31
2018-06-01T23:33:53.085Z,24.31
2018-06-01T23:34:14.607Z,24.31
2018-06-01T23:34:36.123Z,24.31
2018-06-01T23:34:57.643Z,24.32
2018-06-01T23:35:19.167Z,24.32
2018-06-01T23:35:40.695Z,24.31
2018-06-01T23:36:02.223Z,24.31
2018-06-01T23:36:23.738Z,24.31
2018-06-01T23:36:45.261Z,24.32
2018-06-01T23:37:06.783Z,24.31
2018-06-01T23:37:28.372Z,24.31
2018-06-01T23:37:49.962Z,24.31
2018-06-01T23:38:11.485Z,24.31
2018-06-01T23:38:33.016Z,24.32
2018-06-01T23:38:54.552Z,24.32
2018-06-01T23:39:16.076Z,24.31
2018-06-01T23:39:37.610Z,24.32
2018-06-01T23:39:59.133Z,24.32
2018-06-01T23:40:20.640Z,24.32
2018-06-01T23:40:42.169Z,24.32
2018-06-01T23:41:03.738Z,24.33
2018-06-01T23:41:25.273Z,24.32
2018-06-01T23:41:46.779Z,24.32
2018-06-01T23:42:08.300Z,24.33
2018-06-01T23:42:29.832Z,24.33
2018-06-01T23:42:51.343Z,24.33
2018-06-01T23:43:12.852Z,24.33
2018-06-01T23:43:34.381Z,24.33
2018-06-01T23:43:55.889Z,24.33
2018-06-01T23:44:17.408Z,24.33
2018-06-01T23:44:38.929Z,24.33
2018-06-01T23:45:00.465Z,24.32
2018-06-01T23:45:21.970Z,24.33
2018-06-01T23:45:43.492Z,24.33
2018-06-01T23:46:05.026Z,24.33
2018-06-01T23:46:26.538Z,24.33
2018-06-01T23:46:48.052Z,24.33
2018-06-01T23:47:09.572Z,24.33
2018-06-01T23:47:31.078Z,24.33
2018-06-01T23:47:52.595Z,24.34
2018-06-01T23:48:14.112Z,24.33
2018-06-01T23:48:35.678Z,24.34
2018-06-01T23:48:57.201Z,24.34
2018-06-01T23:49:18.710Z,24.33
2018-06-01T23:49:40.224Z,24.33
2018-06-01T23:50:01.765Z,24.34
2018-06-01T23:50:23.292Z,24.33
2018-06-01T23:50:44.816Z,24.34
2018-06-01T23:51:06.348Z,24.33
2018-06-01T23:51:27.880Z,24.34
2018-06-01T23:51:49.388Z,24.34
2018-06-01T23:52:10.905Z,24.33
2018-06-01T23:52:32.435Z,24.34
2018-06-01T23:52:53.943Z,24.34
2018-06-01T23:53:15.455Z,24.34
2018-06-01T23:53:36.970Z,24.34
2018-06-01T23:53:58.485Z,24.34
2018-06-01T23:54:20.051Z,24.34
2018-06-01T23:54:41.564Z,24.34
2018-06-01T23:55:03.101Z,24.34
2018-06-01T23:55:24.620Z,24.34
2018-06-01T23:55:46.135Z,24.34
2018-06-01T23:56:07.644Z,24.34
2018-06-01T23:56:29.150Z,24.34
2018-06-01T23:56:50.667Z,24.35
2018-06-01T23:57:12.183Z,24.34
2018-06-01T23:57:33.700Z,24.35
2018-06-01T23:57:55.206Z,24.34
2018-06-01T23:58:16.727Z,24.35
2018-06-01T23:58:38.248Z,24.35
2018-06-01T23:58:59.772Z,24.34
2018-06-01T23:59:21.292Z,24.34
2018-06-01T23:59:42.813Z,24.34
